sensor_id;sensor_type;location;lat;lon;timestamp;pressure;altitude;pressure_sealevel;temperature;humidity
78337;BME280;67610;51.588;7.002;2023-09-12T00:01:40;100568.94;;;22.94;63.85
78337;BME280;67610;51.588;7.002;2023-09-12T00:04:05;100557.06;;;22.90;63.79
78337;BME280;67610;51.588;7.002;2023-09-12T00:06:31;100553.22;;;22.86;63.83
78337;BME280;67610;51.588;7.002;2023-09-12T00:08:56;100559.50;;;22.80;65.16
78337;BME280;67610;51.588;7.002;2023-09-12T00:11:21;100568.25;;;22.76;64.42
78337;BME280;67610;51.588;7.002;2023-09-12T00:13:51;100566.16;;;22.78;64.32
78337;BME280;67610;51.588;7.002;2023-09-12T00:16:16;100562.41;;;22.79;64.71
78337;BME280;67610;51.588;7.002;2023-09-12T00:18:42;100548.69;;;22.75;65.13
78337;BME280;67610;51.588;7.002;2023-09-12T00:21:07;100542.94;;;22.72;65.32
78337;BME280;67610;51.588;7.002;2023-09-12T00:23:33;100530.81;;;22.69;65.13
78337;BME280;67610;51.588;7.002;2023-09-12T00:25:58;100525.94;;;22.66;65.89
78337;BME280;67610;51.588;7.002;2023-09-12T00:28:24;100530.56;;;22.59;66.11
78337;BME280;67610;51.588;7.002;2023-09-12T00:30:49;100539.66;;;22.58;66.36
78337;BME280;67610;51.588;7.002;2023-09-12T00:33:15;100556.75;;;22.57;66.31
78337;BME280;67610;51.588;7.002;2023-09-12T00:35:40;100567.66;;;22.62;66.47
78337;BME280;67610;51.588;7.002;2023-09-12T00:38:06;100601.34;;;22.70;66.60
78337;BME280;67610;51.588;7.002;2023-09-12T00:40:32;100645.22;;;22.75;66.77
78337;BME280;67610;51.588;7.002;2023-09-12T00:42:58;100670.97;;;22.76;67.24
78337;BME280;67610;51.588;7.002;2023-09-12T00:45:23;100673.41;;;22.66;67.89
78337;BME280;67610;51.588;7.002;2023-09-12T00:47:49;100656.72;;;22.64;68.44
78337;BME280;67610;51.588;7.002;2023-09-12T00:50:16;100619.25;;;22.58;68.63
78337;BME280;67610;51.588;7.002;2023-09-12T00:52:44;100592.31;;;22.53;69.61
78337;BME280;67610;51.588;7.002;2023-09-12T00:55:10;100570.41;;;22.56;69.33
78337;BME280;67610;51.588;7.002;2023-09-12T00:57:36;100467.00;;;22.48;70.83
78337;BME280;67610;51.588;7.002;2023-09-12T01:00:04;100432.41;;;22.35;71.83
78337;BME280;67610;51.588;7.002;2023-09-12T01:02:46;100454.09;;;22.34;72.10
78337;BME280;67610;51.588;7.002;2023-09-12T01:05:13;100487.03;;;22.22;72.50
78337;BME280;67610;51.588;7.002;2023-09-12T01:07:40;100504.50;;;22.25;72.82
78337;BME280;67610;51.588;7.002;2023-09-12T01:10:07;100503.47;;;22.26;73.81
78337;BME280;67610;51.588;7.002;2023-09-12T01:12:33;100517.69;;;22.27;73.58
78337;BME280;67610;51.588;7.002;2023-09-12T01:14:58;100528.53;;;22.20;74.03
78337;BME280;67610;51.588;7.002;2023-09-12T01:17:26;100524.22;;;22.19;73.73
78337;BME280;67610;51.588;7.002;2023-09-12T01:19:52;100520.38;;;22.27;73.40
78337;BME280;67610;51.588;7.002;2023-09-12T01:22:40;100536.47;;;22.27;73.44
78337;BME280;67610;51.588;7.002;2023-09-12T01:28:02;100516.41;;;22.17;73.05
78337;BME280;67610;51.588;7.002;2023-09-12T01:30:32;100512.66;;;22.18;73.60
78337;BME280;67610;51.588;7.002;2023-09-12T01:32:59;100510.09;;;22.12;73.46
78337;BME280;67610;51.588;7.002;2023-09-12T01:35:24;100511.38;;;22.09;73.25
78337;BME280;67610;51.588;7.002;2023-09-12T01:37:50;100522.66;;;22.11;73.45
78337;BME280;67610;51.588;7.002;2023-09-12T01:40:16;100515.78;;;22.04;73.77
78337;BME280;67610;51.588;7.002;2023-09-12T01:42:45;100510.59;;;21.91;73.88
78337;BME280;67610;51.588;7.002;2023-09-12T01:45:14;100494.78;;;21.89;73.76
78337;BME280;67610;51.588;7.002;2023-09-12T01:47:41;100486.50;;;21.91;73.94
78337;BME280;67610;51.588;7.002;2023-09-12T01:50:09;100507.50;;;21.94;74.03
78337;BME280;67610;51.588;7.002;2023-09-12T01:52:38;100508.66;;;21.98;73.87
78337;BME280;67610;51.588;7.002;2023-09-12T01:55:04;100516.94;;;21.96;74.10
78337;BME280;67610;51.588;7.002;2023-09-12T01:57:31;100528.09;;;21.93;73.95
78337;BME280;67610;51.588;7.002;2023-09-12T01:59:58;100551.16;;;21.94;74.17
78337;BME280;67610;51.588;7.002;2023-09-12T02:02:23;100554.19;;;21.98;74.61
78337;BME280;67610;51.588;7.002;2023-09-12T02:05:15;100549.78;;;22.03;74.73
78337;BME280;67610;51.588;7.002;2023-09-12T02:07:43;100526.63;;;22.09;74.70
78337;BME280;67610;51.588;7.002;2023-09-12T02:10:09;100500.63;;;21.98;75.26
78337;BME280;67610;51.588;7.002;2023-09-12T02:12:35;100477.56;;;21.97;74.87
78337;BME280;67610;51.588;7.002;2023-09-12T02:15:01;100471.59;;;21.95;74.76
78337;BME280;67610;51.588;7.002;2023-09-12T02:17:26;100456.00;;;21.92;74.99
78337;BME280;67610;51.588;7.002;2023-09-12T02:19:52;100470.81;;;21.94;75.28
78337;BME280;67610;51.588;7.002;2023-09-12T02:22:17;100498.78;;;22.10;74.84
78337;BME280;67610;51.588;7.002;2023-09-12T02:24:43;100520.53;;;22.02;74.63
78337;BME280;67610;51.588;7.002;2023-09-12T02:27:11;100536.94;;;21.94;75.42
78337;BME280;67610;51.588;7.002;2023-09-12T02:29:38;100525.84;;;21.90;75.00
78337;BME280;67610;51.588;7.002;2023-09-12T02:32:04;100529.59;;;21.89;75.38
78337;BME280;67610;51.588;7.002;2023-09-12T02:34:29;100507.34;;;21.89;75.22
78337;BME280;67610;51.588;7.002;2023-09-12T02:36:55;100508.53;;;21.93;75.20
78337;BME280;67610;51.588;7.002;2023-09-12T02:39:20;100507.63;;;21.99;75.22
78337;BME280;67610;51.588;7.002;2023-09-12T02:41:45;100535.00;;;22.01;74.94
78337;BME280;67610;51.588;7.002;2023-09-12T02:44:11;100544.28;;;21.98;74.60
78337;BME280;67610;51.588;7.002;2023-09-12T02:46:37;100550.34;;;21.94;74.99
78337;BME280;67610;51.588;7.002;2023-09-12T02:49:02;100540.66;;;21.93;74.95
78337;BME280;67610;51.588;7.002;2023-09-12T02:51:31;100558.22;;;21.89;75.22
78337;BME280;67610;51.588;7.002;2023-09-12T02:53:56;100561.06;;;21.94;75.32
78337;BME280;67610;51.588;7.002;2023-09-12T02:56:22;100509.25;;;22.00;75.66
78337;BME280;67610;51.588;7.002;2023-09-12T02:58:48;100556.41;;;22.01;74.55
78337;BME280;67610;51.588;7.002;2023-09-12T03:01:20;100579.47;;;22.02;74.93
78337;BME280;67610;51.588;7.002;2023-09-12T03:03:49;100579.03;;;22.05;75.08
78337;BME280;67610;51.588;7.002;2023-09-12T03:06:15;100581.69;;;22.05;75.46
78337;BME280;67610;51.588;7.002;2023-09-12T03:08:42;100536.59;;;22.02;74.94
78337;BME280;67610;51.588;7.002;2023-09-12T03:11:08;100479.06;;;21.93;73.41
78337;BME280;67610;51.588;7.002;2023-09-12T03:13:34;100497.53;;;21.83;73.62
78337;BME280;67610;51.588;7.002;2023-09-12T03:16:00;100477.75;;;21.84;74.05
78337;BME280;67610;51.588;7.002;2023-09-12T03:18:25;100475.06;;;21.84;73.72
78337;BME280;67610;51.588;7.002;2023-09-12T03:20:51;100475.91;;;21.84;73.65
78337;BME280;67610;51.588;7.002;2023-09-12T03:23:16;100487.59;;;21.83;73.79
78337;BME280;67610;51.588;7.002;2023-09-12T03:25:43;100482.34;;;21.77;74.11
78337;BME280;67610;51.588;7.002;2023-09-12T03:28:09;100477.00;;;21.77;74.28
78337;BME280;67610;51.588;7.002;2023-09-12T03:30:35;100478.28;;;21.74;74.16
78337;BME280;67610;51.588;7.002;2023-09-12T03:33:01;100474.19;;;21.72;74.30
78337;BME280;67610;51.588;7.002;2023-09-12T03:35:28;100475.59;;;21.74;74.59
78337;BME280;67610;51.588;7.002;2023-09-12T03:37:54;100470.47;;;21.73;74.98
78337;BME280;67610;51.588;7.002;2023-09-12T03:40:19;100465.81;;;21.68;74.95
78337;BME280;67610;51.588;7.002;2023-09-12T03:42:45;100468.25;;;21.70;74.90
78337;BME280;67610;51.588;7.002;2023-09-12T03:45:10;100471.66;;;21.77;74.50
78337;BME280;67610;51.588;7.002;2023-09-12T03:47:36;100466.28;;;21.77;74.43
78337;BME280;67610;51.588;7.002;2023-09-12T03:50:01;100462.22;;;21.74;74.56
78337;BME280;67610;51.588;7.002;2023-09-12T03:52:27;100455.00;;;21.75;74.78
78337;BME280;67610;51.588;7.002;2023-09-12T03:54:53;100463.41;;;21.78;74.98
78337;BME280;67610;51.588;7.002;2023-09-12T03:57:18;100463.03;;;21.75;74.52
78337;BME280;67610;51.588;7.002;2023-09-12T03:59:44;100453.97;;;21.76;74.44
78337;BME280;67610;51.588;7.002;2023-09-12T04:02:12;100448.81;;;21.74;74.88
78337;BME280;67610;51.588;7.002;2023-09-12T04:04:37;100440.19;;;21.72;74.52
78337;BME280;67610;51.588;7.002;2023-09-12T04:07:03;100431.34;;;21.72;74.21
78337;BME280;67610;51.588;7.002;2023-09-12T04:09:28;100427.97;;;21.65;74.59
78337;BME280;67610;51.588;7.002;2023-09-12T04:11:54;100420.16;;;21.63;74.17
78337;BME280;67610;51.588;7.002;2023-09-12T04:14:20;100421.44;;;21.61;74.55
78337;BME280;67610;51.588;7.002;2023-09-12T04:16:45;100411.78;;;21.60;74.38
78337;BME280;67610;51.588;7.002;2023-09-12T04:19:11;100416.91;;;21.61;74.07
78337;BME280;67610;51.588;7.002;2023-09-12T04:21:36;100418.03;;;21.53;74.54
78337;BME280;67610;51.588;7.002;2023-09-12T04:24:01;100424.78;;;21.56;74.57
78337;BME280;67610;51.588;7.002;2023-09-12T04:26:27;100433.75;;;21.50;74.38
78337;BME280;67610;51.588;7.002;2023-09-12T04:28:52;100443.63;;;21.49;74.58
78337;BME280;67610;51.588;7.002;2023-09-12T04:31:18;100442.22;;;21.47;74.93
78337;BME280;67610;51.588;7.002;2023-09-12T04:33:43;100441.88;;;21.43;75.18
78337;BME280;67610;51.588;7.002;2023-09-12T04:36:08;100445.56;;;21.42;75.12
78337;BME280;67610;51.588;7.002;2023-09-12T04:38:34;100441.28;;;21.41;74.91
78337;BME280;67610;51.588;7.002;2023-09-12T04:41:01;100453.47;;;21.37;74.78
78337;BME280;67610;51.588;7.002;2023-09-12T04:43:32;100456.13;;;21.37;75.17
78337;BME280;67610;51.588;7.002;2023-09-12T04:45:58;100448.78;;;21.33;75.38
78337;BME280;67610;51.588;7.002;2023-09-12T04:48:23;100457.06;;;21.31;75.17
78337;BME280;67610;51.588;7.002;2023-09-12T04:50:49;100450.78;;;21.37;75.41
78337;BME280;67610;51.588;7.002;2023-09-12T04:53:15;100467.31;;;21.34;75.18
78337;BME280;67610;51.588;7.002;2023-09-12T04:55:40;100469.38;;;21.32;75.04
78337;BME280;67610;51.588;7.002;2023-09-12T04:58:43;100472.50;;;21.29;75.47
78337;BME280;67610;51.588;7.002;2023-09-12T05:01:08;100487.66;;;21.35;75.43
78337;BME280;67610;51.588;7.002;2023-09-12T05:03:35;100497.34;;;21.36;75.62
78337;BME280;67610;51.588;7.002;2023-09-12T05:06:00;100488.03;;;21.39;75.46
78337;BME280;67610;51.588;7.002;2023-09-12T05:08:25;100489.44;;;21.41;75.83
78337;BME280;67610;51.588;7.002;2023-09-12T05:10:51;100495.38;;;21.43;75.48
78337;BME280;67610;51.588;7.002;2023-09-12T05:13:16;100486.09;;;21.46;75.18
78337;BME280;67610;51.588;7.002;2023-09-12T05:15:42;100484.81;;;21.48;75.15
78337;BME280;67610;51.588;7.002;2023-09-12T05:18:08;100484.34;;;21.51;75.23
78337;BME280;67610;51.588;7.002;2023-09-12T05:20:34;100486.81;;;21.53;75.07
78337;BME280;67610;51.588;7.002;2023-09-12T05:22:59;100491.50;;;21.58;74.97
78337;BME280;67610;51.588;7.002;2023-09-12T05:25:25;100491.03;;;21.61;75.31
78337;BME280;67610;51.588;7.002;2023-09-12T05:27:52;100499.28;;;21.59;75.13
78337;BME280;67610;51.588;7.002;2023-09-12T05:30:17;100510.81;;;21.60;75.47
78337;BME280;67610;51.588;7.002;2023-09-12T05:32:43;100522.78;;;21.57;75.38
78337;BME280;67610;51.588;7.002;2023-09-12T05:35:08;100527.09;;;21.58;75.41
78337;BME280;67610;51.588;7.002;2023-09-12T05:37:33;100512.34;;;21.67;75.63
78337;BME280;67610;51.588;7.002;2023-09-12T05:39:59;100503.97;;;21.64;75.89
78337;BME280;67610;51.588;7.002;2023-09-12T05:42:24;100506.69;;;21.45;75.80
78337;BME280;67610;51.588;7.002;2023-09-12T05:44:50;100510.31;;;21.51;76.06
78337;BME280;67610;51.588;7.002;2023-09-12T05:47:18;100497.09;;;21.68;75.59
78337;BME280;67610;51.588;7.002;2023-09-12T05:49:44;100488.50;;;21.66;75.58
78337;BME280;67610;51.588;7.002;2023-09-12T05:52:09;100498.03;;;21.62;75.41
78337;BME280;67610;51.588;7.002;2023-09-12T05:54:36;100534.91;;;21.60;75.57
78337;BME280;67610;51.588;7.002;2023-09-12T05:57:01;100555.84;;;21.63;75.84
78337;BME280;67610;51.588;7.002;2023-09-12T05:59:27;100540.91;;;21.73;76.40
78337;BME280;67610;51.588;7.002;2023-09-12T06:01:53;100522.03;;;21.68;75.84
78337;BME280;67610;51.588;7.002;2023-09-12T06:04:18;100536.78;;;21.59;75.52
78337;BME280;67610;51.588;7.002;2023-09-12T06:06:43;100550.25;;;21.52;76.20
78337;BME280;67610;51.588;7.002;2023-09-12T06:09:10;100553.34;;;21.49;76.49
78337;BME280;67610;51.588;7.002;2023-09-12T06:11:35;100544.81;;;21.59;76.22
78337;BME280;67610;51.588;7.002;2023-09-12T06:14:01;100533.28;;;21.58;76.07
78337;BME280;67610;51.588;7.002;2023-09-12T06:16:26;100540.47;;;21.58;76.70
78337;BME280;67610;51.588;7.002;2023-09-12T06:18:52;100555.28;;;21.61;76.17
78337;BME280;67610;51.588;7.002;2023-09-12T06:21:19;100576.69;;;21.61;76.10
78337;BME280;67610;51.588;7.002;2023-09-12T06:23:46;100600.78;;;21.61;76.12
78337;BME280;67610;51.588;7.002;2023-09-12T06:26:12;100617.06;;;21.59;76.77
78337;BME280;67610;51.588;7.002;2023-09-12T06:28:37;100627.13;;;21.64;76.65
78337;BME280;67610;51.588;7.002;2023-09-12T06:31:02;100649.63;;;21.74;76.71
78337;BME280;67610;51.588;7.002;2023-09-12T06:33:28;100680.88;;;21.80;76.87
78337;BME280;67610;51.588;7.002;2023-09-12T06:35:53;100709.75;;;21.78;76.93
78337;BME280;67610;51.588;7.002;2023-09-12T06:38:21;100723.19;;;21.72;77.17
78337;BME280;67610;51.588;7.002;2023-09-12T06:40:47;100667.28;;;21.64;77.49
78337;BME280;67610;51.588;7.002;2023-09-12T06:43:13;100612.63;;;21.53;78.13
78337;BME280;67610;51.588;7.002;2023-09-12T06:45:40;100593.66;;;21.54;77.54
78337;BME280;67610;51.588;7.002;2023-09-12T06:48:06;100567.66;;;21.43;78.12
78337;BME280;67610;51.588;7.002;2023-09-12T06:50:31;100553.44;;;21.25;78.82
78337;BME280;67610;51.588;7.002;2023-09-12T06:52:57;100538.34;;;21.12;78.90
78337;BME280;67610;51.588;7.002;2023-09-12T06:55:23;100547.19;;;21.13;79.26
78337;BME280;67610;51.588;7.002;2023-09-12T06:57:49;100537.28;;;20.95;79.85
78337;BME280;67610;51.588;7.002;2023-09-12T07:00:14;100533.84;;;20.88;80.18
78337;BME280;67610;51.588;7.002;2023-09-12T07:02:40;100539.28;;;21.00;79.58
78337;BME280;67610;51.588;7.002;2023-09-12T07:05:05;100529.75;;;21.10;78.94
78337;BME280;67610;51.588;7.002;2023-09-12T07:07:32;100524.81;;;21.07;79.11
78337;BME280;67610;51.588;7.002;2023-09-12T07:09:58;100518.25;;;21.03;79.21
78337;BME280;67610;51.588;7.002;2023-09-12T07:12:25;100522.41;;;20.99;80.14
78337;BME280;67610;51.588;7.002;2023-09-12T07:14:50;100511.50;;;21.01;79.73
78337;BME280;67610;51.588;7.002;2023-09-12T07:17:17;100514.34;;;21.06;79.15
78337;BME280;67610;51.588;7.002;2023-09-12T07:19:43;100535.09;;;21.10;79.27
78337;BME280;67610;51.588;7.002;2023-09-12T07:22:08;100551.06;;;21.17;79.14
78337;BME280;67610;51.588;7.002;2023-09-12T07:24:33;100567.41;;;21.27;78.51
78337;BME280;67610;51.588;7.002;2023-09-12T07:26:59;100585.09;;;21.28;78.25
78337;BME280;67610;51.588;7.002;2023-09-12T07:29:24;100589.66;;;21.27;78.19
78337;BME280;67610;51.588;7.002;2023-09-12T07:31:53;100583.75;;;21.37;78.28
78337;BME280;67610;51.588;7.002;2023-09-12T07:34:19;100579.16;;;21.44;78.13
78337;BME280;67610;51.588;7.002;2023-09-12T07:36:45;100572.41;;;21.41;78.08
78337;BME280;67610;51.588;7.002;2023-09-12T07:42:11;100579.63;;;21.41;77.91
78337;BME280;67610;51.588;7.002;2023-09-12T07:44:37;100572.84;;;21.38;77.90
78337;BME280;67610;51.588;7.002;2023-09-12T07:47:03;100573.44;;;21.40;78.09
78337;BME280;67610;51.588;7.002;2023-09-12T07:49:28;100571.13;;;21.44;78.02
78337;BME280;67610;51.588;7.002;2023-09-12T07:51:54;100555.44;;;21.47;78.23
78337;BME280;67610;51.588;7.002;2023-09-12T07:54:22;100561.38;;;21.49;78.19
78337;BME280;67610;51.588;7.002;2023-09-12T07:56:47;100555.34;;;21.54;77.59
78337;BME280;67610;51.588;7.002;2023-09-12T07:59:12;100543.22;;;21.70;77.46
78337;BME280;67610;51.588;7.002;2023-09-12T08:01:39;100534.28;;;21.76;77.12
78337;BME280;67610;51.588;7.002;2023-09-12T08:04:04;100535.13;;;21.76;77.21
78337;BME280;67610;51.588;7.002;2023-09-12T08:06:30;100533.38;;;21.82;77.24
78337;BME280;67610;51.588;7.002;2023-09-12T08:08:56;100518.44;;;21.74;77.42
78337;BME280;67610;51.588;7.002;2023-09-12T08:11:21;100525.44;;;21.75;77.49
78337;BME280;67610;51.588;7.002;2023-09-12T08:13:49;100527.44;;;21.80;77.37
78337;BME280;67610;51.588;7.002;2023-09-12T08:16:15;100531.75;;;21.81;77.07
78337;BME280;67610;51.588;7.002;2023-09-12T08:18:40;100535.16;;;21.88;76.96
78337;BME280;67610;51.588;7.002;2023-09-12T08:21:09;100529.50;;;21.96;76.38
78337;BME280;67610;51.588;7.002;2023-09-12T08:23:35;100536.84;;;22.00;76.32
78337;BME280;67610;51.588;7.002;2023-09-12T08:26:01;100557.16;;;22.08;76.57
78337;BME280;67610;51.588;7.002;2023-09-12T08:28:26;100544.91;;;22.12;76.26
78337;BME280;67610;51.588;7.002;2023-09-12T08:30:52;100554.94;;;22.16;76.36
78337;BME280;67610;51.588;7.002;2023-09-12T08:33:17;100563.47;;;22.25;76.08
78337;BME280;67610;51.588;7.002;2023-09-12T08:35:43;100558.25;;;22.30;75.19
78337;BME280;67610;51.588;7.002;2023-09-12T08:38:08;100563.28;;;22.38;75.23
78337;BME280;67610;51.588;7.002;2023-09-12T08:40:34;100565.75;;;22.51;75.39
78337;BME280;67610;51.588;7.002;2023-09-12T08:43:01;100574.06;;;22.61;74.94
78337;BME280;67610;51.588;7.002;2023-09-12T08:45:28;100570.91;;;22.64;74.19
78337;BME280;67610;51.588;7.002;2023-09-12T08:47:55;100576.41;;;22.69;74.02
78337;BME280;67610;51.588;7.002;2023-09-12T08:50:22;100571.88;;;22.70;74.07
78337;BME280;67610;51.588;7.002;2023-09-12T08:52:49;100579.09;;;22.69;73.87
78337;BME280;67610;51.588;7.002;2023-09-12T08:55:14;100582.47;;;22.76;73.83
78337;BME280;67610;51.588;7.002;2023-09-12T08:57:44;100587.72;;;22.94;73.96
78337;BME280;67610;51.588;7.002;2023-09-12T09:00:14;100585.41;;;23.10;73.77
78337;BME280;67610;51.588;7.002;2023-09-12T09:02:40;100590.06;;;23.26;73.61
78337;BME280;67610;51.588;7.002;2023-09-12T09:05:07;100602.28;;;23.56;73.27
78337;BME280;67610;51.588;7.002;2023-09-12T09:07:35;100617.09;;;24.10;73.45
78337;BME280;67610;51.588;7.002;2023-09-12T09:10:03;100620.09;;;24.42;72.64
78337;BME280;67610;51.588;7.002;2023-09-12T09:12:30;100607.81;;;24.96;70.95
78337;BME280;67610;51.588;7.002;2023-09-12T09:14:55;100619.22;;;25.20;68.82
78337;BME280;67610;51.588;7.002;2023-09-12T09:17:21;100614.56;;;25.15;66.66
78337;BME280;67610;51.588;7.002;2023-09-12T09:19:46;100614.38;;;25.22;65.26
78337;BME280;67610;51.588;7.002;2023-09-12T09:22:13;100606.06;;;25.61;63.85
78337;BME280;67610;51.588;7.002;2023-09-12T09:24:38;100602.47;;;25.99;62.69
78337;BME280;67610;51.588;7.002;2023-09-12T09:27:04;100609.66;;;26.42;62.18
78337;BME280;67610;51.588;7.002;2023-09-12T09:29:29;100611.94;;;26.82;60.06
78337;BME280;67610;51.588;7.002;2023-09-12T09:31:59;100612.72;;;27.19;59.43
78337;BME280;67610;51.588;7.002;2023-09-12T09:34:25;100615.03;;;27.37;56.95
78337;BME280;67610;51.588;7.002;2023-09-12T09:36:56;100626.09;;;27.41;58.16
78337;BME280;67610;51.588;7.002;2023-09-12T09:39:27;100631.19;;;27.84;57.56
78337;BME280;67610;51.588;7.002;2023-09-12T09:41:55;100627.66;;;27.84;56.55
78337;BME280;67610;51.588;7.002;2023-09-12T09:44:22;100629.53;;;27.83;55.80
78337;BME280;67610;51.588;7.002;2023-09-12T09:46:55;100625.75;;;27.89;55.52
78337;BME280;67610;51.588;7.002;2023-09-12T09:49:21;100636.69;;;28.19;54.81
78337;BME280;67610;51.588;7.002;2023-09-12T09:51:47;100636.47;;;28.36;53.41
78337;BME280;67610;51.588;7.002;2023-09-12T09:54:13;100639.69;;;28.23;53.60
78337;BME280;67610;51.588;7.002;2023-09-12T09:56:46;100638.31;;;28.15;53.63
78337;BME280;67610;51.588;7.002;2023-09-12T09:59:18;100641.53;;;28.02;53.56
78337;BME280;67610;51.588;7.002;2023-09-12T10:01:45;100638.41;;;27.68;55.23
78337;BME280;67610;51.588;7.002;2023-09-12T10:04:11;100641.31;;;27.52;55.96
78337;BME280;67610;51.588;7.002;2023-09-12T10:06:37;100628.75;;;27.36;56.51
78337;BME280;67610;51.588;7.002;2023-09-12T10:09:14;100641.69;;;27.34;57.58
78337;BME280;67610;51.588;7.002;2023-09-12T10:11:42;100647.72;;;27.41;56.82
78337;BME280;67610;51.588;7.002;2023-09-12T10:14:08;100634.50;;;27.44;56.40
78337;BME280;67610;51.588;7.002;2023-09-12T10:16:49;100635.91;;;27.57;56.04
78337;BME280;67610;51.588;7.002;2023-09-12T10:19:23;100629.72;;;27.56;55.38
78337;BME280;67610;51.588;7.002;2023-09-12T10:24:24;100638.31;;;27.48;55.92
78337;BME280;67610;51.588;7.002;2023-09-12T10:26:51;100636.97;;;27.51;55.91
78337;BME280;67610;51.588;7.002;2023-09-12T10:29:17;100634.53;;;27.54;55.74
78337;BME280;67610;51.588;7.002;2023-09-12T10:31:42;100631.69;;;27.76;54.52
78337;BME280;67610;51.588;7.002;2023-09-12T10:34:10;100628.03;;;28.02;54.18
78337;BME280;67610;51.588;7.002;2023-09-12T10:36:40;100617.53;;;28.46;54.18
78337;BME280;67610;51.588;7.002;2023-09-12T10:39:09;100619.44;;;28.51;52.54
78337;BME280;67610;51.588;7.002;2023-09-12T10:41:37;100621.91;;;28.82;52.21
78337;BME280;67610;51.588;7.002;2023-09-12T10:44:06;100624.06;;;29.21;50.84
78337;BME280;67610;51.588;7.002;2023-09-12T10:46:38;100623.16;;;29.45;50.27
78337;BME280;67610;51.588;7.002;2023-09-12T10:49:09;100622.66;;;29.33;50.56
78337;BME280;67610;51.588;7.002;2023-09-12T10:51:43;100617.81;;;29.10;50.66
78337;BME280;67610;51.588;7.002;2023-09-12T10:54:12;100618.59;;;29.26;51.21
78337;BME280;67610;51.588;7.002;2023-09-12T10:56:38;100613.38;;;29.54;49.66
78337;BME280;67610;51.588;7.002;2023-09-12T11:01:34;100606.50;;;29.82;49.02
78337;BME280;67610;51.588;7.002;2023-09-12T11:06:43;100619.88;;;29.53;48.71
78337;BME280;67610;51.588;7.002;2023-09-12T11:09:19;100618.03;;;29.44;50.21
78337;BME280;67610;51.588;7.002;2023-09-12T11:11:56;100617.44;;;29.57;49.94
78337;BME280;67610;51.588;7.002;2023-09-12T11:14:21;100601.69;;;29.64;49.65
78337;BME280;67610;51.588;7.002;2023-09-12T11:20:02;100604.50;;;30.03;48.79
78337;BME280;67610;51.588;7.002;2023-09-12T11:22:30;100607.84;;;29.90;48.51
78337;BME280;67610;51.588;7.002;2023-09-12T11:24:57;100605.72;;;29.77;48.70
78337;BME280;67610;51.588;7.002;2023-09-12T11:27:31;100599.69;;;29.90;47.80
78337;BME280;67610;51.588;7.002;2023-09-12T11:30:05;100595.31;;;29.94;48.45
78337;BME280;67610;51.588;7.002;2023-09-12T11:32:32;100601.91;;;29.78;49.12
78337;BME280;67610;51.588;7.002;2023-09-12T11:35:05;100597.59;;;29.71;48.89
78337;BME280;67610;51.588;7.002;2023-09-12T11:37:31;100600.34;;;29.56;49.38
78337;BME280;67610;51.588;7.002;2023-09-12T11:39:58;100592.81;;;29.43;48.65
78337;BME280;67610;51.588;7.002;2023-09-12T11:42:24;100599.28;;;29.52;48.88
78337;BME280;67610;51.588;7.002;2023-09-12T11:44:52;100600.31;;;29.66;48.17
78337;BME280;67610;51.588;7.002;2023-09-12T11:47:18;100599.25;;;29.62;47.32
78337;BME280;67610;51.588;7.002;2023-09-12T11:49:45;100601.47;;;29.50;47.57
78337;BME280;67610;51.588;7.002;2023-09-12T11:52:12;100603.34;;;29.55;47.31
78337;BME280;67610;51.588;7.002;2023-09-12T11:54:39;100604.19;;;29.50;47.56
78337;BME280;67610;51.588;7.002;2023-09-12T11:57:07;100598.78;;;29.45;46.29
78337;BME280;67610;51.588;7.002;2023-09-12T11:59:37;100596.69;;;29.27;47.45
78337;BME280;67610;51.588;7.002;2023-09-12T12:02:06;100596.19;;;28.95;48.19
78337;BME280;67610;51.588;7.002;2023-09-12T12:04:32;100592.94;;;28.88;48.14
78337;BME280;67610;51.588;7.002;2023-09-12T12:06:57;100594.28;;;28.85;48.66
78337;BME280;67610;51.588;7.002;2023-09-12T12:09:23;100588.06;;;28.60;48.26
78337;BME280;67610;51.588;7.002;2023-09-12T12:11:49;100587.50;;;28.53;48.65
78337;BME280;67610;51.588;7.002;2023-09-12T12:14:16;100578.84;;;28.66;48.49
78337;BME280;67610;51.588;7.002;2023-09-12T12:16:42;100580.50;;;28.62;48.69
78337;BME280;67610;51.588;7.002;2023-09-12T12:19:12;100576.41;;;28.54;48.42
78337;BME280;67610;51.588;7.002;2023-09-12T12:21:42;100586.44;;;28.49;48.84
78337;BME280;67610;51.588;7.002;2023-09-12T12:24:10;100587.78;;;28.56;48.65
78337;BME280;67610;51.588;7.002;2023-09-12T12:26:37;100576.13;;;28.51;48.25
78337;BME280;67610;51.588;7.002;2023-09-12T12:29:04;100578.28;;;28.28;49.26
78337;BME280;67610;51.588;7.002;2023-09-12T12:31:30;100583.69;;;28.28;49.27
78337;BME280;67610;51.588;7.002;2023-09-12T12:33:56;100582.09;;;28.38;49.35
78337;BME280;67610;51.588;7.002;2023-09-12T12:36:22;100581.56;;;28.51;49.66
78337;BME280;67610;51.588;7.002;2023-09-12T12:38:49;100588.56;;;28.57;49.35
78337;BME280;67610;51.588;7.002;2023-09-12T12:41:16;100581.59;;;28.61;49.40
78337;BME280;67610;51.588;7.002;2023-09-12T12:43:42;100583.19;;;28.62;49.47
78337;BME280;67610;51.588;7.002;2023-09-12T12:46:12;100577.25;;;28.70;49.92
78337;BME280;67610;51.588;7.002;2023-09-12T12:48:38;100572.91;;;28.79;49.31
78337;BME280;67610;51.588;7.002;2023-09-12T12:51:20;100573.44;;;28.76;48.81
78337;BME280;67610;51.588;7.002;2023-09-12T12:53:49;100572.38;;;28.77;48.94
78337;BME280;67610;51.588;7.002;2023-09-12T12:56:20;100567.22;;;28.85;48.46
78337;BME280;67610;51.588;7.002;2023-09-12T12:59:07;100565.31;;;28.76;48.83
78337;BME280;67610;51.588;7.002;2023-09-12T13:01:35;100566.94;;;28.82;48.66
78337;BME280;67610;51.588;7.002;2023-09-12T13:04:00;100560.69;;;28.86;48.35
78337;BME280;67610;51.588;7.002;2023-09-12T13:06:26;100557.72;;;28.83;48.18